createdAt,value
2023-03-01T00:01:16.684Z,214.90
2023-03-01T00:03:43.781Z,188.20
2023-03-01T00:06:11.006Z,172.30
2023-03-01T00:08:37.948Z,178.50
2023-03-01T00:11:05.607Z,168.80
2023-03-01T00:13:33.112Z,154.20
2023-03-01T00:15:59.751Z,152.70
2023-03-01T00:18:26.301Z,145.70
2023-03-01T00:20:54.441Z,141.60
2023-03-01T00:23:22.289Z,131.60
2023-03-01T00:25:49.519Z,131.70
2023-03-01T00:28:16.465Z,130.00
2023-03-01T00:30:43.488Z,140.60
2023-03-01T00:33:10.212Z,156.40
2023-03-01T00:35:37.018Z,166.50
2023-03-01T00:38:04.359Z,220.00
2023-03-01T00:40:34.879Z,232.20
2023-03-01T00:43:02.313Z,200.60
2023-03-01T00:45:31.332Z,167.00
2023-03-01T00:47:57.871Z,141.90
2023-03-01T00:50:24.658Z,131.70
2023-03-01T00:52:55.880Z,128.90
2023-03-01T00:55:23.552Z,133.10
2023-03-01T00:57:50.145Z,138.80
2023-03-01T01:00:18.025Z,141.10
2023-03-01T01:02:45.680Z,171.90
2023-03-01T01:05:13.064Z,179.40
2023-03-01T01:07:39.724Z,178.70
2023-03-01T01:10:09.087Z,174.40
2023-03-01T01:12:35.748Z,180.30
2023-03-01T01:15:02.460Z,168.90
2023-03-01T01:17:29.060Z,172.90
2023-03-01T01:19:55.769Z,167.40
2023-03-01T01:22:22.380Z,183.10
2023-03-01T01:24:48.936Z,188.40
2023-03-01T01:27:15.588Z,168.90
2023-03-01T01:29:42.478Z,154.30
2023-03-01T01:32:09.088Z,158.90
2023-03-01T01:34:35.713Z,147.50
2023-03-01T01:37:03.176Z,181.60
2023-03-01T01:39:29.806Z,193.30
2023-03-01T01:41:56.533Z,186.30
2023-03-01T01:44:27.464Z,185.10
2023-03-01T01:46:55.106Z,185.60
2023-03-01T01:49:25.818Z,168.40
2023-03-01T01:52:08.293Z,163.40
2023-03-01T01:54:51.045Z,150.10
2023-03-01T01:57:23.056Z,153.60
2023-03-01T01:59:54.825Z,137.70
2023-03-01T02:02:21.725Z,135.10
2023-03-01T02:04:50.567Z,140.00
2023-03-01T02:07:22.346Z,137.10
2023-03-01T02:09:51.340Z,121.90
2023-03-01T02:12:22.613Z,134.80
2023-03-01T02:14:49.331Z,141.10
2023-03-01T02:17:18.002Z,140.60
2023-03-01T02:20:10.751Z,143.40
2023-03-01T02:22:38.837Z,154.40
2023-03-01T02:25:18.654Z,161.00
2023-03-01T02:28:06.211Z,155.70
2023-03-01T02:30:33.995Z,157.80
2023-03-01T02:33:03.752Z,165.10
2023-03-01T02:43:17.444Z,159.60
2023-03-01T02:45:53.869Z,152.80
2023-03-01T02:48:21.921Z,153.30
2023-03-01T02:51:12.569Z,152.30
2023-03-01T02:53:54.725Z,152.20
2023-03-01T02:56:22.880Z,143.90
2023-03-01T02:58:52.753Z,148.30
2023-03-01T03:01:21.993Z,132.40
2023-03-01T03:03:50.027Z,131.90
2023-03-01T03:06:18.310Z,129.70
2023-03-01T03:08:46.576Z,126.50
2023-03-01T03:11:14.664Z,131.30
2023-03-01T03:13:49.266Z,128.10
2023-03-01T03:16:17.482Z,137.90
2023-03-01T03:18:45.436Z,137.80
2023-03-01T03:21:14.543Z,216.40
2023-03-01T03:23:42.724Z,170.70
2023-03-01T03:26:16.234Z,139.90
2023-03-01T03:28:44.382Z,134.00
2023-03-01T03:31:12.456Z,145.80
2023-03-01T03:33:40.443Z,144.80
2023-03-01T03:36:14.003Z,139.70
2023-03-01T03:38:41.904Z,132.60
2023-03-01T03:41:09.808Z,120.90
2023-03-01T03:43:39.537Z,136.90
2023-03-01T03:46:08.544Z,129.20
2023-03-01T03:48:43.368Z,133.90
2023-03-01T03:51:17.234Z,129.90
2023-03-01T03:53:46.590Z,137.50
2023-03-01T03:56:14.656Z,141.40
2023-03-01T03:58:44.852Z,123.90
2023-03-01T04:01:12.937Z,140.30
2023-03-01T04:03:42.730Z,130.40
2023-03-01T04:06:10.727Z,134.00
2023-03-01T04:08:41.230Z,131.40
2023-03-01T04:11:28.671Z,142.70
2023-03-01T04:14:00.004Z,127.10
2023-03-01T04:16:28.581Z,129.30
2023-03-01T04:18:57.653Z,133.50
2023-03-01T04:21:25.844Z,138.70
2023-03-01T04:23:53.936Z,134.10
2023-03-01T04:26:22.167Z,129.30
2023-03-01T04:28:51.544Z,127.50
2023-03-01T04:31:22.424Z,123.00
2023-03-01T04:33:53.834Z,125.40
2023-03-01T04:36:25.863Z,134.50
2023-03-01T04:38:54.768Z,130.90
2023-03-01T04:41:25.761Z,127.80
2023-03-01T04:43:53.832Z,138.10
2023-03-01T04:46:23.014Z,134.60
2023-03-01T04:48:51.309Z,130.30
2023-03-01T04:51:19.552Z,143.90
2023-03-01T04:53:47.852Z,128.10
2023-03-01T04:56:16.439Z,136.20
2023-03-01T04:58:45.014Z,141.70
2023-03-01T05:01:19.891Z,137.70
2023-03-01T05:03:52.921Z,146.20
2023-03-01T05:06:22.082Z,136.60
2023-03-01T05:08:50.169Z,133.50
2023-03-01T05:11:18.142Z,145.70
2023-03-01T05:13:46.094Z,140.00
2023-03-01T05:16:14.287Z,140.00
2023-03-01T05:18:42.608Z,150.50
2023-03-01T05:21:14.141Z,129.50
2023-03-01T05:23:42.353Z,142.60
2023-03-01T05:26:25.760Z,137.60
2023-03-01T05:29:00.236Z,128.60
2023-03-01T05:31:28.833Z,134.20
2023-03-01T05:33:56.836Z,135.90
2023-03-01T05:36:24.895Z,133.70
2023-03-01T05:38:52.767Z,139.60
2023-03-01T05:41:20.766Z,138.20
2023-03-01T05:43:48.913Z,133.90
2023-03-01T05:46:16.864Z,134.40
2023-03-01T05:48:44.873Z,136.00
2023-03-01T05:51:13.225Z,147.20
2023-03-01T05:53:41.161Z,143.00
2023-03-01T05:56:09.218Z,141.60
2023-03-01T05:58:39.694Z,141.90
2023-03-01T06:01:13.825Z,149.80
2023-03-01T06:03:42.352Z,151.00
2023-03-01T06:06:10.333Z,153.50
2023-03-01T06:08:38.274Z,164.10
2023-03-01T06:11:06.469Z,153.60
2023-03-01T06:13:34.478Z,144.40
2023-03-01T06:16:05.198Z,154.80
2023-03-01T06:18:33.407Z,141.10
2023-03-01T06:21:01.667Z,146.10
2023-03-01T06:23:29.674Z,150.60
2023-03-01T06:25:57.654Z,168.60
2023-03-01T06:28:25.812Z,173.80
2023-03-01T06:30:53.951Z,164.30
2023-03-01T06:33:24.548Z,171.90
2023-03-01T06:35:55.864Z,163.20
2023-03-01T06:38:25.461Z,158.20
2023-03-01T06:40:58.007Z,166.50
2023-03-01T06:43:25.995Z,181.30
2023-03-01T06:45:54.104Z,174.80
2023-03-01T06:48:22.183Z,182.20
2023-03-01T06:50:50.265Z,177.30
2023-03-01T06:53:18.283Z,175.20
2023-03-01T06:55:46.289Z,175.20
2023-03-01T06:58:14.281Z,178.30
2023-03-01T07:00:44.088Z,181.00
2023-03-01T07:03:12.139Z,169.70
2023-03-01T07:05:40.305Z,188.90
2023-03-01T07:08:08.597Z,190.70
2023-03-01T07:10:36.639Z,184.20
2023-03-01T07:13:04.728Z,178.00
2023-03-01T07:15:33.938Z,186.10
2023-03-01T07:18:02.075Z,193.20
2023-03-01T07:20:30.237Z,172.80
2023-03-01T07:22:59.666Z,172.20
2023-03-01T07:25:27.818Z,161.10
2023-03-01T07:27:55.862Z,154.60
2023-03-01T07:30:26.851Z,162.70
2023-03-01T07:32:59.049Z,157.70
2023-03-01T07:35:28.380Z,140.30
2023-03-01T07:37:56.457Z,144.30
2023-03-01T07:40:24.488Z,148.30
2023-03-01T07:42:57.569Z,148.10
2023-03-01T07:45:26.742Z,147.30
2023-03-01T07:47:56.784Z,147.60
2023-03-01T07:50:24.727Z,152.10
2023-03-01T07:52:52.833Z,134.80
2023-03-01T07:58:25.483Z,124.20
2023-03-01T08:00:53.484Z,126.00
2023-03-01T08:03:21.621Z,127.70
2023-03-01T08:05:49.582Z,127.40
2023-03-01T08:08:18.055Z,129.30
2023-03-01T08:10:46.752Z,133.30
2023-03-01T08:13:14.742Z,151.80
2023-03-01T08:15:42.874Z,145.90
2023-03-01T08:18:10.775Z,132.90
2023-03-01T08:20:38.708Z,120.80
2023-03-01T08:23:06.658Z,118.30
2023-03-01T08:25:35.113Z,99.90
2023-03-01T08:28:03.215Z,90.00
2023-03-01T08:30:31.387Z,101.60
2023-03-01T08:32:59.515Z,98.20
2023-03-01T08:35:27.653Z,100.80
2023-03-01T08:37:55.784Z,101.30
2023-03-01T08:40:23.853Z,92.70
2023-03-01T08:42:52.051Z,100.80
2023-03-01T08:45:20.325Z,94.80
2023-03-01T08:47:48.396Z,101.60
2023-03-01T08:50:16.859Z,103.70
2023-03-01T08:52:44.938Z,106.00
2023-03-01T08:55:12.940Z,93.00
2023-03-01T08:57:40.871Z,96.80
2023-03-01T09:00:10.435Z,99.70
2023-03-01T09:02:39.857Z,81.00
2023-03-01T09:05:08.461Z,91.90
2023-03-01T09:07:36.380Z,76.80
2023-03-01T09:10:04.956Z,85.70
2023-03-01T09:12:32.965Z,66.00
2023-03-01T09:15:00.912Z,72.30
2023-03-01T09:17:28.897Z,68.00
2023-03-01T09:19:56.896Z,67.50
2023-03-01T09:22:24.844Z,60.50
2023-03-01T09:24:52.831Z,48.40
2023-03-01T09:27:20.907Z,38.60
2023-03-01T09:29:48.882Z,30.60
2023-03-01T09:32:16.933Z,29.80
2023-03-01T09:35:05.880Z,28.50
2023-03-01T09:37:35.803Z,32.70
2023-03-01T09:40:06.363Z,28.10
2023-03-01T09:42:36.863Z,27.60
2023-03-01T09:45:07.228Z,23.50
2023-03-01T09:47:36.913Z,30.90
2023-03-01T09:50:11.955Z,21.30
2023-03-01T09:52:47.804Z,22.10
2023-03-01T09:55:23.589Z,23.40
2023-03-01T09:58:17.007Z,21.80
2023-03-01T10:00:49.271Z,25.50
2023-03-01T10:03:53.078Z,25.00
2023-03-01T10:06:34.459Z,28.60
2023-03-01T10:09:17.528Z,22.90
2023-03-01T10:11:54.488Z,22.60
2023-03-01T10:14:34.550Z,21.90
2023-03-01T10:17:18.872Z,19.20
2023-03-01T10:19:48.609Z,16.70
2023-03-01T10:22:18.428Z,14.60
2023-03-01T10:24:47.717Z,18.00
2023-03-01T10:27:25.167Z,18.80
2023-03-01T10:30:21.925Z,17.40
2023-03-01T10:32:52.684Z,16.50
2023-03-01T10:35:25.328Z,13.80
2023-03-01T10:38:11.243Z,15.40
2023-03-01T10:41:08.931Z,14.20
2023-03-01T10:43:52.857Z,13.20
2023-03-01T10:46:40.109Z,14.60
2023-03-01T10:49:26.704Z,14.60
2023-03-01T10:51:55.405Z,14.90
2023-03-01T10:54:25.026Z,19.10
2023-03-01T10:56:57.158Z,16.10
2023-03-01T10:59:37.464Z,14.50
2023-03-01T11:02:31.713Z,17.00
2023-03-01T11:06:31.346Z,18.50
2023-03-01T11:09:15.113Z,16.00
2023-03-01T11:11:43.095Z,15.70
2023-03-01T11:14:30.773Z,14.20
2023-03-01T11:17:13.420Z,18.50
2023-03-01T11:19:43.681Z,19.10
2023-03-01T11:22:23.211Z,21.90
2023-03-01T11:25:07.426Z,19.90
2023-03-01T11:27:46.759Z,16.60
2023-03-01T11:30:44.788Z,16.30
2023-03-01T11:33:41.029Z,16.90
2023-03-01T11:36:36.548Z,14.10
2023-03-01T11:39:38.765Z,17.00
2023-03-01T11:42:22.660Z,13.30
2023-03-01T11:44:56.655Z,16.60
2023-03-01T11:47:52.144Z,16.40
2023-03-01T11:50:49.451Z,16.50
2023-03-01T11:53:27.955Z,16.30
2023-03-01T11:56:15.471Z,14.80
2023-03-01T11:59:04.606Z,15.10
2023-03-01T12:01:53.869Z,16.90
2023-03-01T12:04:58.842Z,17.40
2023-03-01T12:08:13.060Z,19.60
2023-03-01T12:11:12.245Z,14.60
2023-03-01T12:14:05.388Z,17.90
2023-03-01T12:19:55.891Z,16.60
2023-03-01T12:22:45.428Z,18.50
2023-03-01T12:25:30.716Z,13.90
2023-03-01T12:28:18.890Z,15.60
2023-03-01T12:31:06.295Z,18.80
2023-03-01T12:33:50.809Z,12.50
2023-03-01T12:36:37.365Z,15.20
2023-03-01T12:39:25.517Z,13.10
2023-03-01T12:42:15.096Z,15.00
2023-03-01T12:45:14.983Z,13.90
2023-03-01T12:47:51.910Z,14.20
2023-03-01T12:50:26.725Z,13.40
2023-03-01T12:52:58.762Z,16.50
2023-03-01T12:55:39.102Z,23.20
2023-03-01T12:58:48.669Z,12.40
2023-03-01T13:01:52.198Z,11.70
2023-03-01T13:05:19.356Z,10.90
2023-03-01T13:08:00.061Z,11.10
2023-03-01T13:10:37.730Z,13.70
2023-03-01T13:13:27.657Z,14.40
2023-03-01T13:15:57.076Z,18.10
2023-03-01T13:18:26.574Z,13.30
2023-03-01T13:21:03.790Z,13.20
2023-03-01T13:23:40.792Z,11.80
2023-03-01T13:26:15.926Z,10.00
2023-03-01T13:28:50.655Z,12.20
2023-03-01T13:31:23.825Z,10.10
2023-03-01T13:33:52.848Z,13.80
2023-03-01T13:36:30.494Z,10.40
2023-03-01T13:39:03.432Z,12.80
2023-03-01T13:41:40.690Z,12.20
2023-03-01T13:44:27.957Z,12.50
2023-03-01T13:47:08.217Z,11.60
2023-03-01T13:50:00.954Z,12.00
2023-03-01T13:52:58.813Z,10.50
2023-03-01T13:55:46.523Z,10.80
2023-03-01T13:58:29.761Z,10.50
2023-03-01T14:01:07.432Z,11.60
2023-03-01T14:03:42.852Z,12.20
2023-03-01T14:06:21.151Z,9.70
2023-03-01T14:08:54.099Z,12.80
2023-03-01T14:14:08.525Z,11.00
2023-03-01T14:17:10.755Z,14.20
2023-03-01T14:19:38.783Z,14.20
2023-03-01T14:22:28.417Z,13.20
2023-03-01T14:25:07.017Z,12.70
2023-03-01T14:27:40.503Z,11.20
2023-03-01T14:30:25.795Z,12.00
2023-03-01T14:33:03.058Z,12.00
2023-03-01T14:35:37.047Z,11.80
2023-03-01T14:38:05.136Z,11.90
2023-03-01T14:40:37.896Z,9.90
2023-03-01T14:45:49.296Z,12.50
2023-03-01T14:48:17.795Z,12.60
2023-03-01T14:50:46.209Z,13.10
2023-03-01T14:53:25.261Z,12.10
2023-03-01T14:56:03.399Z,15.10
2023-03-01T14:58:34.847Z,16.70
2023-03-01T15:01:05.579Z,17.60
2023-03-01T15:03:42.211Z,11.60
2023-03-01T15:06:10.883Z,12.10
2023-03-01T15:08:44.127Z,15.40
2023-03-01T15:11:15.177Z,15.80
2023-03-01T15:13:43.661Z,11.40
2023-03-01T15:16:22.963Z,12.30
2023-03-01T15:19:16.819Z,13.90
2023-03-01T15:21:49.734Z,15.10
2023-03-01T15:24:26.426Z,16.10
2023-03-01T15:27:02.999Z,12.00
2023-03-01T15:29:34.575Z,15.50
2023-03-01T15:32:22.024Z,14.70
2023-03-01T15:34:50.474Z,15.80
2023-03-01T15:37:48.918Z,15.20
2023-03-01T15:40:33.967Z,14.30
2023-03-01T15:43:05.517Z,16.80
2023-03-01T15:45:39.706Z,15.90
2023-03-01T15:48:21.211Z,13.80
2023-03-01T15:50:56.837Z,15.10
2023-03-01T15:53:25.734Z,14.90
2023-03-01T15:55:53.820Z,13.10
2023-03-01T15:58:26.897Z,16.90
2023-03-01T16:01:01.275Z,16.10
2023-03-01T16:03:30.668Z,18.00
2023-03-01T16:05:59.010Z,14.30
2023-03-01T16:08:27.461Z,16.90
2023-03-01T16:10:55.690Z,27.60
2023-03-01T16:13:32.267Z,15.50
2023-03-01T16:16:00.465Z,16.40
2023-03-01T16:18:29.932Z,19.80
2023-03-01T16:20:58.121Z,18.00
2023-03-01T16:23:26.153Z,15.30
2023-03-01T16:25:54.206Z,20.50
2023-03-01T16:28:22.470Z,20.80
2023-03-01T16:30:51.883Z,19.30
2023-03-01T16:33:32.240Z,18.10
2023-03-01T16:36:11.149Z,25.20
2023-03-01T16:38:39.996Z,21.30
2023-03-01T16:41:13.745Z,29.70
2023-03-01T16:43:42.200Z,26.10
2023-03-01T16:46:30.095Z,27.30
2023-03-01T16:48:58.654Z,34.60
2023-03-01T16:51:26.906Z,26.80
2023-03-01T16:53:55.325Z,30.20
2023-03-01T16:56:23.513Z,44.60
2023-03-01T16:58:51.636Z,35.40
2023-03-01T17:01:22.653Z,30.00
2023-03-01T17:03:51.302Z,26.50
2023-03-01T17:06:23.254Z,20.80
2023-03-01T17:08:51.546Z,22.80
2023-03-01T17:11:21.415Z,20.50
2023-03-01T17:13:49.931Z,27.60
2023-03-01T17:16:20.902Z,24.10
2023-03-01T17:18:50.151Z,24.90
2023-03-01T17:21:18.367Z,22.20
2023-03-01T17:23:47.796Z,30.00
2023-03-01T17:26:17.382Z,50.50
2023-03-01T17:28:45.879Z,90.00
2023-03-01T17:31:14.119Z,53.80
2023-03-01T17:33:42.266Z,74.00
2023-03-01T17:36:10.909Z,50.20
2023-03-01T17:38:39.072Z,52.50
2023-03-01T17:41:07.823Z,49.90
2023-03-01T17:43:36.102Z,86.00
2023-03-01T17:46:04.772Z,99.80
2023-03-01T17:48:32.939Z,75.50
2023-03-01T17:51:01.053Z,51.30
2023-03-01T17:53:32.063Z,42.10
2023-03-01T17:56:06.784Z,46.70
2023-03-01T17:58:35.166Z,42.00
2023-03-01T18:01:18.024Z,49.40
2023-03-01T18:06:29.625Z,124.60
2023-03-01T18:09:01.523Z,128.80
2023-03-01T18:11:29.896Z,77.50
2023-03-01T18:14:16.858Z,71.10
2023-03-01T18:16:45.222Z,63.40
2023-03-01T18:19:13.708Z,86.40
2023-03-01T18:21:41.775Z,77.30
2023-03-01T18:24:09.815Z,65.40
2023-03-01T18:26:39.949Z,60.50
2023-03-01T18:29:08.706Z,57.40
2023-03-01T18:31:37.299Z,47.40
2023-03-01T18:34:05.443Z,43.40
2023-03-01T18:36:35.904Z,42.20
2023-03-01T18:39:06.972Z,40.60
2023-03-01T18:41:36.397Z,40.40
2023-03-01T18:44:05.538Z,33.50
2023-03-01T18:46:37.932Z,35.70
2023-03-01T18:49:08.171Z,37.10
2023-03-01T18:51:36.351Z,50.40
2023-03-01T18:54:05.124Z,42.40
2023-03-01T18:56:59.736Z,43.70
2023-03-01T18:59:30.084Z,41.40
2023-03-01T19:01:59.555Z,41.70
2023-03-01T19:04:28.379Z,39.90
2023-03-01T19:06:56.752Z,42.40
2023-03-01T19:09:25.191Z,45.20
2023-03-01T19:12:10.712Z,42.60
2023-03-01T19:14:38.862Z,44.10
2023-03-01T19:17:07.299Z,42.80
2023-03-01T19:19:36.518Z,47.40
2023-03-01T19:22:06.213Z,46.00
2023-03-01T19:24:37.707Z,57.30
2023-03-01T19:27:05.897Z,57.70
2023-03-01T19:29:35.440Z,52.60
2023-03-01T19:32:04.236Z,45.10
2023-03-01T19:40:52.810Z,53.50
2023-03-01T19:43:21.067Z,59.90
2023-03-01T19:45:53.526Z,59.80
2023-03-01T19:48:22.861Z,46.80
2023-03-01T19:50:53.211Z,52.10
2023-03-01T19:53:22.128Z,44.10
2023-03-01T19:55:53.118Z,48.00
2023-03-01T19:58:21.244Z,50.10
2023-03-01T20:00:49.243Z,53.30
2023-03-01T20:03:17.284Z,80.20
2023-03-01T20:05:46.773Z,60.20
2023-03-01T20:08:14.715Z,52.00
2023-03-01T20:10:43.444Z,46.10
2023-03-01T20:13:11.591Z,53.20
2023-03-01T20:15:43.420Z,85.40
2023-03-01T20:18:11.799Z,74.60
2023-03-01T20:20:39.761Z,81.80
2023-03-01T20:23:07.680Z,90.80
2023-03-01T20:25:35.680Z,93.30
2023-03-01T20:28:03.748Z,114.10
2023-03-01T20:30:31.881Z,162.70
2023-03-01T20:32:59.959Z,152.70
2023-03-01T20:35:32.045Z,100.40
2023-03-01T20:38:00.049Z,69.70
2023-03-01T20:40:28.500Z,65.20
2023-03-01T20:42:56.648Z,69.10
2023-03-01T20:45:27.996Z,95.00
2023-03-01T20:47:56.244Z,109.70
2023-03-01T20:50:24.363Z,85.00
2023-03-01T20:52:52.374Z,70.70
2023-03-01T20:55:20.543Z,66.90
2023-03-01T20:57:48.600Z,60.20
2023-03-01T21:00:17.013Z,61.00
2023-03-01T21:02:45.049Z,60.30
2023-03-01T21:05:13.076Z,57.20
2023-03-01T21:07:41.166Z,63.80
2023-03-01T21:10:10.782Z,79.20
2023-03-01T21:12:39.166Z,73.00
2023-03-01T21:15:09.716Z,67.00
2023-03-01T21:17:39.356Z,69.80
2023-03-01T21:20:08.287Z,71.80
2023-03-01T21:22:36.269Z,65.90
2023-03-01T21:25:04.951Z,66.10
2023-03-01T21:27:38.058Z,56.80
2023-03-01T21:30:06.591Z,53.20
2023-03-01T21:32:34.534Z,59.20
2023-03-01T21:35:02.654Z,71.70
2023-03-01T21:37:30.745Z,82.90
2023-03-01T21:39:58.715Z,91.40
2023-03-01T21:42:26.642Z,95.90
2023-03-01T21:44:54.663Z,97.20
2023-03-01T21:47:22.810Z,94.00
2023-03-01T21:49:51.016Z,90.90
2023-03-01T21:52:19.128Z,83.20
2023-03-01T21:54:51.011Z,75.60
2023-03-01T21:57:19.621Z,85.60
2023-03-01T21:59:47.520Z,79.60
2023-03-01T22:02:15.932Z,87.20
2023-03-01T22:04:44.019Z,87.50
2023-03-01T22:07:12.186Z,94.00
2023-03-01T22:09:40.542Z,86.20
2023-03-01T22:12:08.653Z,90.80
2023-03-01T22:14:36.826Z,91.90
2023-03-01T22:17:04.846Z,87.50
2023-03-01T22:19:33.161Z,86.30
2023-03-01T22:22:01.393Z,85.00
2023-03-01T22:24:29.593Z,90.10
2023-03-01T22:26:57.756Z,98.10
2023-03-01T22:29:29.136Z,108.40
2023-03-01T22:31:58.415Z,96.90
2023-03-01T22:34:27.577Z,94.70
2023-03-01T22:36:56.613Z,101.10
2023-03-01T22:39:24.788Z,100.10
2023-03-01T22:42:11.226Z,109.70
2023-03-01T22:44:39.213Z,106.60
2023-03-01T22:47:07.144Z,94.60
2023-03-01T22:49:35.160Z,86.50
2023-03-01T22:52:03.723Z,83.50
2023-03-01T22:54:32.402Z,82.10
2023-03-01T22:57:00.644Z,81.40
2023-03-01T22:59:28.653Z,79.70
2023-03-01T23:01:57.438Z,74.40
2023-03-01T23:04:25.491Z,78.30
2023-03-01T23:06:56.888Z,70.20
2023-03-01T23:09:31.772Z,65.10
2023-03-01T23:12:02.492Z,69.80
2023-03-01T23:14:32.359Z,118.70
2023-03-01T23:17:01.815Z,155.20
2023-03-01T23:19:32.159Z,134.70
2023-03-01T23:22:00.151Z,132.20
2023-03-01T23:24:31.786Z,136.70
2023-03-01T23:27:01.426Z,127.50
2023-03-01T23:29:30.482Z,114.30
2023-03-01T23:31:59.372Z,123.00
2023-03-01T23:34:28.686Z,127.20
2023-03-01T23:36:58.063Z,131.90
2023-03-01T23:39:27.592Z,127.60
2023-03-01T23:41:56.976Z,119.50
2023-03-01T23:44:24.971Z,126.20
2023-03-01T23:46:53.173Z,128.40
2023-03-01T23:49:23.411Z,126.80
2023-03-01T23:51:51.851Z,112.90
2023-03-01T23:54:23.860Z,116.00
2023-03-01T23:56:52.090Z,122.60
2023-03-01T23:59:23.287Z,120.00
